Time;durP1;ratioP1;P1;durP2;ratioP2;P2;SDS_P1;SDS_P2;PMS_P1;PMS_P2;Temp;Humidity;BMP_temperature;BMP_pressure;BME280_temperature;BME280_humidity;BME280_pressure;Samples;Min_cycle;Max_cycle;Signal;HPM_P1;HPM_P2
2021/06/17 00:00:05;;;;;;;9.98;8.23;;;;;;;15.28;78.23;97865.17;1705650;84;21015;-81
2021/06/17 00:02:37;;;;;;;9.80;8.80;;;;;;;15.27;78.36;97861.63;1705341;84;21080;-81
2021/06/17 00:05:10;;;;;;;9.65;7.72;;;;;;;15.31;79.21;97864.53;1705608;83;21028;-81
2021/06/17 00:07:47;;;;;;;8.68;7.78;;;;;;;15.35;78.52;97863.02;1726130;83;21028;-81
2021/06/17 00:10:34;;;;;;;9.18;7.80;;;;;;;15.40;79.14;97867.20;1708510;84;21032;-81
2021/06/17 00:13:07;;;;;;;9.75;7.53;;;;;;;15.44;78.47;97862.55;1708376;84;21217;-82
2021/06/17 00:15:42;;;;;;;9.58;7.65;;;;;;;15.48;78.84;97868.13;1708304;84;21083;-82
2021/06/17 00:18:14;;;;;;;8.95;7.60;;;;;;;15.48;78.66;97870.80;1708387;84;21040;-82
2021/06/17 00:20:48;;;;;;;8.90;7.65;;;;;;;15.51;78.39;97872.45;1708544;84;21532;-82
2021/06/17 00:23:22;;;;;;;11.75;8.20;;;;;;;15.54;78.60;97867.80;1708014;84;21064;-82
2021/06/17 00:25:56;;;;;;;11.33;9.23;;;;;;;15.55;79.36;97863.34;1711107;83;20996;-82
2021/06/17 00:28:28;;;;;;;10.13;7.97;;;;;;;15.55;78.47;97864.22;1716410;83;20987;-82
2021/06/17 00:31:00;;;;;;;10.00;8.55;;;;;;;15.58;78.19;97867.20;1716516;84;21035;-82
2021/06/17 00:33:29;;;;;;;10.58;8.20;;;;;;;15.60;78.40;97866.63;1716260;83;20979;-81
2021/06/17 00:35:59;;;;;;;12.30;8.28;;;;;;;15.55;77.88;97858.00;1716311;83;21011;-82
2021/06/17 00:38:27;;;;;;;9.48;8.55;;;;;;;15.54;79.03;97861.63;1716276;84;21026;-82
2021/06/17 00:40:58;;;;;;;12.07;9.05;;;;;;;15.47;78.73;97868.20;1716302;84;21019;-82
2021/06/17 00:43:31;;;;;;;9.35;8.35;;;;;;;15.42;78.23;97865.33;1715901;83;21007;-81
2021/06/17 00:46:00;;;;;;;10.78;8.88;;;;;;;15.41;78.37;97868.07;1716515;84;21022;-82
2021/06/17 00:48:30;;;;;;;11.55;8.78;;;;;;;15.36;78.07;97863.45;1716483;84;21006;-81
2021/06/17 00:51:04;;;;;;;11.35;8.85;;;;;;;15.33;78.10;97863.12;1716610;84;20979;-81
2021/06/17 00:53:38;;;;;;;9.88;8.88;;;;;;;15.32;77.95;97866.72;1716715;83;20991;-82
2021/06/17 00:56:07;;;;;;;9.73;8.73;;;;;;;15.24;77.84;97867.11;1715855;84;21023;-82
2021/06/17 00:58:40;;;;;;;9.75;8.75;;;;;;;15.19;77.82;97862.48;1716252;84;21034;-81
2021/06/17 01:01:09;;;;;;;9.95;8.73;;;;;;;15.16;77.91;97869.33;1716404;84;21010;-82
2021/06/17 01:03:37;;;;;;;9.28;8.08;;;;;;;15.13;78.23;97866.80;1716501;84;21325;-82
2021/06/17 01:06:04;;;;;;;10.53;8.98;;;;;;;15.10;77.92;97860.27;1697817;84;21062;-82
2021/06/17 01:09:05;;;;;;;11.12;8.58;;;;;;;15.05;78.17;97855.17;1716618;83;20944;-82
2021/06/17 01:11:56;;;;;;;11.53;8.90;;;;;;;15.00;78.17;97857.22;1716596;84;20987;-82
2021/06/17 01:14:29;;;;;;;9.80;8.80;;;;;;;14.96;78.11;97863.18;1716601;84;21019;-82
2021/06/17 01:17:10;;;;;;;10.50;9.43;;;;;;;14.89;78.81;97867.95;1715989;84;21403;-82
2021/06/17 01:19:51;;;;;;;11.22;9.30;;;;;;;14.85;78.82;97863.70;1715330;83;21016;-81
2021/06/17 01:22:52;;;;;;;10.23;9.00;;;;;;;14.78;78.92;97867.59;1716573;84;21035;-82
2021/06/17 01:25:58;;;;;;;10.60;9.20;;;;;;;14.74;78.94;97865.52;1711371;83;21055;-82
2021/06/17 01:28:36;;;;;;;12.00;9.15;;;;;;;14.70;79.26;97866.61;1706238;84;21012;-82
2021/06/17 01:31:21;;;;;;;12.90;9.38;;;;;;;14.67;79.10;97869.44;1686103;84;21524;-83
2021/06/17 01:33:51;;;;;;;11.75;9.00;;;;;;;14.59;81.56;97868.48;1708541;84;21075;-82
2021/06/17 01:36:24;;;;;;;11.05;8.95;;;;;;;14.51;83.22;97861.30;1708238;84;21533;-82
2021/06/17 01:38:58;;;;;;;12.13;8.90;;;;;;;14.48;83.21;97857.44;1708362;84;21063;-82
2021/06/17 01:41:29;;;;;;;12.98;8.68;;;;;;;14.48;81.24;97851.66;1708646;84;21020;-82
2021/06/17 01:44:08;;;;;;;9.03;8.13;;;;;;;14.48;82.29;97846.78;1708208;84;21521;-82
2021/06/17 01:46:39;;;;;;;9.43;7.60;;;;;;;14.49;82.08;97843.20;1706941;84;21048;-83
2021/06/17 01:49:08;;;;;;;11.12;7.72;;;;;;;14.50;81.16;97843.09;1708464;84;21056;-83
2021/06/17 01:51:38;;;;;;;8.98;7.25;;;;;;;14.54;81.03;97850.50;1683933;84;20963;-82
2021/06/17 01:54:09;;;;;;;8.40;6.87;;;;;;;14.51;81.86;97854.19;1671817;83;21441;-83
2021/06/17 01:56:42;;;;;;;8.35;6.58;;;;;;;14.49;82.45;97851.20;1721020;83;21026;-83
2021/06/17 01:59:11;;;;;;;11.35;7.58;;;;;;;14.51;81.60;97848.84;1720838;83;21525;-83
2021/06/17 02:01:41;;;;;;;9.83;6.70;;;;;;;14.56;81.24;97848.61;1675880;83;21066;-82
2021/06/17 02:04:13;;;;;;;8.10;6.90;;;;;;;14.60;81.21;97843.53;1720863;83;21019;-83
2021/06/17 02:06:43;;;;;;;8.78;7.87;;;;;;;14.59;81.50;97843.14;1720721;83;20983;-82
2021/06/17 02:09:15;;;;;;;10.00;6.90;;;;;;;14.59;81.16;97848.94;1720866;83;21039;-82
2021/06/17 02:11:44;;;;;;;9.65;7.75;;;;;;;14.52;81.52;97847.03;1720740;83;20991;-82
2021/06/17 02:14:14;;;;;;;8.98;7.85;;;;;;;14.39;81.45;97843.63;1720548;83;21042;-82
2021/06/17 02:16:44;;;;;;;10.32;7.97;;;;;;;14.32;82.27;97844.00;1720757;83;20964;-83
2021/06/17 02:19:15;;;;;;;9.45;8.35;;;;;;;14.28;81.10;97845.92;1720966;83;20994;-83
2021/06/17 02:21:54;;;;;;;10.25;7.58;;;;;;;14.24;81.60;97845.20;1720916;83;20956;-82
2021/06/17 02:24:29;;;;;;;8.88;7.65;;;;;;;14.13;83.07;97852.85;1711978;83;20980;-83
2021/06/17 02:27:15;;;;;;;9.73;8.23;;;;;;;14.01;83.79;97855.61;1700479;84;21080;-82
2021/06/17 02:29:47;;;;;;;9.40;7.95;;;;;;;13.91;84.07;97863.63;1692686;85;21092;-82
2021/06/17 02:32:23;;;;;;;10.15;8.35;;;;;;;13.83;83.69;97862.16;1693359;85;21049;-82
2021/06/17 02:34:54;;;;;;;9.83;8.58;;;;;;;13.77;84.10;97858.45;1693045;85;21553;-82
2021/06/17 02:37:26;;;;;;;13.80;8.68;;;;;;;13.74;83.75;97853.25;1730926;83;21056;-82
2021/06/17 02:39:57;;;;;;;9.33;8.33;;;;;;;13.73;83.58;97859.52;1731071;82;20953;-82
2021/06/17 02:42:29;;;;;;;9.68;8.68;;;;;;;13.69;85.45;97864.12;1695009;85;21077;-83
2021/06/17 02:45:05;;;;;;;13.55;8.53;;;;;;;13.68;84.72;97853.08;1730676;82;21024;-83
2021/06/17 02:47:35;;;;;;;14.63;9.65;;;;;;;13.69;83.71;97861.46;1730995;82;21012;-82
2021/06/17 02:50:08;;;;;;;9.83;8.83;;;;;;;13.71;84.33;97867.57;1695477;84;21032;-82
2021/06/17 02:52:42;;;;;;;12.18;8.38;;;;;;;13.73;82.94;97864.84;1704138;84;21062;-83
2021/06/17 02:55:16;;;;;;;9.98;8.63;;;;;;;13.73;84.68;97865.72;1698305;84;21065;-82
2021/06/17 02:58:01;;;;;;;10.60;8.08;;;;;;;13.75;83.31;97864.33;1704151;84;20963;-82
2021/06/17 03:00:30;;;;;;;9.58;8.03;;;;;;;13.75;83.79;97859.45;1685671;84;21538;-82
2021/06/17 03:03:09;;;;;;;12.07;8.68;;;;;;;13.71;82.71;97855.59;1703647;84;21090;-82
2021/06/17 03:05:54;;;;;;;11.75;8.10;;;;;;;13.71;82.55;97862.73;1704018;84;21138;-83
2021/06/17 03:08:50;;;;;;;8.73;7.83;;;;;;;13.74;82.78;97847.92;1698135;84;21001;-83
2021/06/17 03:11:23;;;;;;;11.33;8.13;;;;;;;13.75;83.76;97859.45;1704023;83;21018;-83
2021/06/17 03:13:55;;;;;;;8.30;7.40;;;;;;;13.73;84.12;97854.19;1698231;84;20980;-83
2021/06/17 03:16:32;;;;;;;8.85;7.05;;;;;;;13.73;84.21;97853.73;1704220;84;20963;-83
2021/06/17 03:19:04;;;;;;;10.08;7.12;;;;;;;13.75;83.63;97852.34;1698139;84;21031;-83
2021/06/17 03:21:55;;;;;;;9.85;7.15;;;;;;;13.81;83.03;97854.72;1703996;84;21134;-83
2021/06/17 03:24:25;;;;;;;9.85;6.75;;;;;;;13.84;82.99;97859.05;1697311;84;20985;-83
2021/06/17 03:26:58;;;;;;;8.60;6.75;;;;;;;13.90;83.46;97864.58;1709037;83;21045;-84
2021/06/17 03:29:34;;;;;;;9.00;6.70;;;;;;;13.95;83.14;97869.23;1710588;84;21413;-84
2021/06/17 03:32:11;;;;;;;9.78;6.55;;;;;;;13.96;82.81;97861.63;1718585;83;21082;-84
2021/06/17 03:34:44;;;;;;;7.92;6.15;;;;;;;14.01;82.63;97870.72;1718931;83;21014;-84
2021/06/17 03:37:20;;;;;;;8.85;7.28;;;;;;;14.09;82.72;97868.13;1718951;83;20993;-83
2021/06/17 03:39:53;;;;;;;9.80;7.42;;;;;;;14.09;82.41;97870.80;1718771;83;21470;-83
2021/06/17 03:42:26;;;;;;;;;;;;;;;14.13;82.00;97875.02;1721478;83;21018;-83
2021/06/17 03:45:01;;;;;;;;;;;;;;;14.11;82.42;97874.23;1712848;83;20103;-83
2021/06/17 03:47:30;;;;;;;11.35;7.42;;;;;;;14.11;81.57;97877.36;1709245;84;20110;-83
2021/06/17 03:50:00;;;;;;;8.58;7.20;;;;;;;14.13;81.36;97884.34;1674362;86;21498;-83
2021/06/17 03:52:32;;;;;;;8.88;7.35;;;;;;;14.16;81.61;97887.34;1677461;84;21458;-83
2021/06/17 03:55:03;;;;;;;10.10;7.58;;;;;;;14.18;81.12;97890.81;1672678;84;21459;-83
2021/06/17 03:57:35;;;;;;;10.25;7.37;;;;;;;14.18;80.61;97890.81;1672499;86;21086;-83
2021/06/17 04:00:08;;;;;;;9.38;7.37;;;;;;;14.18;80.62;97896.59;1672615;86;21002;-83
2021/06/17 04:02:40;;;;;;;12.88;7.65;;;;;;;14.21;80.36;97907.13;1672536;86;21510;-83
2021/06/17 04:05:13;;;;;;;11.78;8.25;;;;;;;14.24;80.46;97912.30;1672351;86;21119;-84
2021/06/17 04:07:51;;;;;;;11.18;8.93;;;;;;;14.27;80.25;97917.99;1672647;86;21045;-84
2021/06/17 04:10:21;;;;;;;16.85;11.45;;;;;;;14.29;80.45;97922.77;1672476;86;21063;-83
2021/06/17 04:12:54;;;;;;;11.88;10.13;;;;;;;14.29;80.78;97912.98;1672592;86;21081;-84
2021/06/17 04:15:29;;;;;;;13.90;8.95;;;;;;;14.33;80.27;97914.55;1672942;86;20990;-84
2021/06/17 04:18:01;;;;;;;11.83;8.18;;;;;;;14.38;80.13;97908.53;1688651;84;21015;-82
2021/06/17 04:20:41;;;;;;;9.65;8.63;;;;;;;14.41;81.04;97910.67;1701882;84;21479;-84
2021/06/17 04:23:17;;;;;;;10.48;8.88;;;;;;;14.47;80.96;97899.72;1702533;84;21021;-84
2021/06/17 04:25:51;;;;;;;11.00;8.50;;;;;;;14.56;80.12;97905.08;1702452;84;20973;-84
2021/06/17 04:28:27;;;;;;;13.18;9.05;;;;;;;14.64;79.83;97902.46;1697761;84;21036;-83
2021/06/17 04:31:02;;;;;;;12.05;8.08;;;;;;;14.73;79.35;97906.48;1697067;85;21510;-83
2021/06/17 04:33:36;;;;;;;11.22;8.03;;;;;;;14.84;79.25;97911.80;1697115;84;21028;-83
2021/06/17 04:36:06;;;;;;;12.70;7.45;;;;;;;14.95;78.89;97915.28;1697098;84;21052;-83
2021/06/17 04:38:38;;;;;;;11.60;8.20;;;;;;;15.01;78.71;97920.31;1697329;84;21101;-83
2021/06/17 04:41:11;;;;;;;12.25;8.08;;;;;;;15.06;78.10;97918.28;1697031;84;21017;-83
2021/06/17 04:43:41;;;;;;;10.15;7.97;;;;;;;15.10;78.43;97919.87;1697352;84;21003;-83
2021/06/17 04:46:13;;;;;;;9.80;7.67;;;;;;;15.15;78.26;97924.96;1697233;84;21091;-82
2021/06/17 04:48:46;;;;;;;15.48;11.22;;;;;;;15.24;78.08;97933.85;1698091;84;20969;-83
2021/06/17 04:51:16;;;;;;;9.95;7.70;;;;;;;15.36;77.80;97939.55;1696916;85;21520;-83
2021/06/17 04:53:54;;;;;;;8.80;6.92;;;;;;;15.44;77.61;97933.33;1696863;84;21105;-83
2021/06/17 04:56:26;;;;;;;9.23;7.45;;;;;;;15.49;77.37;97937.96;1697154;84;21017;-83
2021/06/17 04:58:57;;;;;;;7.87;7.08;;;;;;;15.56;77.24;97942.52;1697600;84;21040;-83
2021/06/17 05:01:26;;;;;;;10.70;7.58;;;;;;;15.67;77.03;97937.98;1697363;84;21043;-83
2021/06/17 05:03:59;;;;;;;11.93;6.67;;;;;;;15.77;76.66;97931.67;1696976;84;21076;-83
2021/06/17 05:06:33;;;;;;;14.05;7.35;;;;;;;15.82;76.08;97938.52;1697194;84;21371;-83
2021/06/17 05:11:55;;;;;;;7.65;6.60;;;;;;;15.92;75.17;97937.58;1697188;84;21057;-83
2021/06/17 05:14:28;;;;;;;8.15;6.53;;;;;;;16.05;74.89;97939.62;1697387;84;21420;-83
2021/06/17 05:16:57;;;;;;;8.50;6.28;;;;;;;16.13;74.25;97936.08;1697625;84;21076;-83
2021/06/17 05:19:27;;;;;;;11.57;6.08;;;;;;;16.21;73.76;97933.86;1718241;83;21049;-84
2021/06/17 05:21:59;;;;;;;8.35;5.92;;;;;;;16.26;73.04;97939.41;1718079;83;20981;-84
2021/06/17 05:24:32;;;;;;;15.35;7.80;;;;;;;16.30;72.74;97942.31;1717851;83;21042;-83
2021/06/17 05:27:04;;;;;;;10.13;6.00;;;;;;;16.40;73.47;97941.36;1714314;83;21030;-81
2021/06/17 05:29:34;;;;;;;11.15;6.97;;;;;;;16.48;73.72;97944.45;1690514;85;21077;-82
2021/06/17 05:32:05;;;;;;;13.78;6.45;;;;;;;16.53;72.66;97943.73;1690683;85;20974;-83
2021/06/17 05:34:35;;;;;;;10.32;5.70;;;;;;;16.64;72.68;97951.17;1669347;85;21022;-83
2021/06/17 05:37:06;;;;;;;10.70;6.60;;;;;;;16.73;71.86;97951.16;1690598;85;20986;-83
2021/06/17 05:39:37;;;;;;;10.93;6.60;;;;;;;16.77;71.61;97954.03;1690648;85;21015;-83
2021/06/17 05:42:07;;;;;;;9.40;6.37;;;;;;;16.80;71.47;97947.17;1690803;84;20957;-83
2021/06/17 05:44:37;;;;;;;12.18;6.42;;;;;;;16.86;71.02;97941.47;1690573;84;21088;-83
2021/06/17 05:47:04;;;;;;;11.90;5.72;;;;;;;16.97;71.06;97941.34;1690678;85;21453;-83
2021/06/17 05:49:36;;;;;;;10.98;6.95;;;;;;;17.04;70.77;97945.44;1675256;85;20983;-83
2021/06/17 05:52:08;;;;;;;10.40;6.17;;;;;;;17.11;70.27;97936.59;1669075;85;21399;-84
2021/06/17 05:54:44;;;;;;;13.58;6.15;;;;;;;17.22;70.67;97935.48;1669316;85;21026;-83
2021/06/17 05:57:14;;;;;;;15.08;6.30;;;;;;;17.36;70.24;97939.18;1669181;85;20991;-83
2021/06/17 05:59:46;;;;;;;13.43;5.80;;;;;;;17.52;70.32;97938.66;1670842;85;21089;-83
2021/06/17 06:02:16;;;;;;;9.83;6.65;;;;;;;17.71;70.00;97940.71;1669602;85;21096;-83
2021/06/17 06:04:46;;;;;;;17.02;6.67;;;;;;;17.87;69.38;97938.85;1680706;85;21061;-81
2021/06/17 06:07:14;;;;;;;11.08;5.78;;;;;;;17.96;68.76;97940.11;1682332;85;21402;-80
2021/06/17 06:09:43;;;;;;;9.13;5.85;;;;;;;18.13;68.66;97943.13;1682996;85;20982;-81
2021/06/17 06:12:17;;;;;;;11.53;6.25;;;;;;;18.24;68.36;97941.59;1682681;85;20981;-81
2021/06/17 06:14:47;;;;;;;8.45;6.00;;;;;;;18.37;68.55;97939.01;1682660;85;21021;-81
2021/06/17 06:17:18;;;;;;;8.60;5.45;;;;;;;18.55;67.73;97946.38;1682178;85;21037;-82
2021/06/17 06:19:48;;;;;;;12.90;5.33;;;;;;;18.65;66.36;97948.89;1680526;85;21507;-82
2021/06/17 06:22:18;;;;;;;8.03;4.80;;;;;;;18.74;66.98;97944.24;1676592;85;21017;-81
2021/06/17 06:24:50;;;;;;;10.88;5.17;;;;;;;18.87;66.58;97940.78;1677790;85;20969;-79
2021/06/17 06:27:20;;;;;;;7.10;4.58;;;;;;;18.94;66.38;97944.78;1657089;85;21211;-82
2021/06/17 06:29:49;;;;;;;8.70;4.30;;;;;;;19.00;65.19;97944.41;1679668;85;21045;-83
2021/06/17 06:32:18;;;;;;;6.70;4.30;;;;;;;19.10;65.13;97952.73;1679751;85;21144;-82
2021/06/17 06:34:50;;;;;;;8.93;4.40;;;;;;;19.21;64.82;97947.14;1682717;85;21021;-80
2021/06/17 06:37:21;;;;;;;6.80;4.80;;;;;;;19.28;64.37;97956.53;1682830;85;21088;-80
2021/06/17 06:39:50;;;;;;;5.83;4.55;;;;;;;19.34;63.92;97955.24;1665240;85;21048;-80
2021/06/17 06:42:20;;;;;;;7.30;4.00;;;;;;;19.43;63.00;97955.98;1653788;86;21068;-79
2021/06/17 06:44:50;;;;;;;5.75;4.50;;;;;;;19.52;62.68;97955.36;1655244;87;21065;-79
2021/06/17 06:47:21;;;;;;;7.85;4.53;;;;;;;19.65;62.49;97947.33;1666940;85;21445;-79
2021/06/17 06:49:51;;;;;;;5.70;4.20;;;;;;;19.80;62.34;97947.25;1682752;85;21029;-80
2021/06/17 06:52:22;;;;;;;7.50;4.60;;;;;;;19.90;61.66;97948.84;1682400;85;21025;-79
2021/06/17 06:54:50;;;;;;;8.25;4.35;;;;;;;19.98;62.17;97942.97;1682626;85;21036;-79
2021/06/17 06:57:24;;;;;;;11.12;4.80;;;;;;;20.04;60.93;97949.25;1682530;85;21108;-80
2021/06/17 06:59:54;;;;;;;7.08;4.83;;;;;;;20.17;61.22;97950.13;1682829;85;20997;-80
2021/06/17 07:02:24;;;;;;;8.68;4.70;;;;;;;20.38;61.74;97944.20;1682617;85;21112;-80
2021/06/17 07:04:56;;;;;;;8.43;4.92;;;;;;;20.50;59.73;97949.19;1682777;85;21017;-79
2021/06/17 07:07:26;;;;;;;11.48;5.12;;;;;;;20.62;59.83;97951.97;1682751;85;21048;-79
2021/06/17 07:09:58;;;;;;;7.22;4.50;;;;;;;20.66;59.07;97942.70;1682691;85;21041;-79
2021/06/17 07:12:29;;;;;;;8.55;4.83;;;;;;;20.70;58.85;97941.52;1682602;85;21495;-80
2021/06/17 07:14:59;;;;;;;8.75;4.30;;;;;;;20.75;59.02;97951.47;1682876;85;21001;-80
2021/06/17 07:17:30;;;;;;;9.30;4.70;;;;;;;20.87;59.00;97942.14;1681666;85;20994;-79
2021/06/17 07:20:01;;;;;;;5.10;3.72;;;;;;;20.91;57.99;97936.91;1681099;85;21120;-80
2021/06/17 07:22:27;;;;;;;7.58;4.83;;;;;;;20.97;57.24;97939.17;1680770;85;21006;-80
2021/06/17 07:25:01;;;;;;;6.87;4.58;;;;;;;21.05;57.77;97939.45;1680905;85;21069;-79
2021/06/17 07:27:29;;;;;;;6.55;4.47;;;;;;;21.19;57.86;97943.84;1684147;83;21084;-79
2021/06/17 07:29:56;;;;;;;12.20;4.25;;;;;;;21.33;57.08;97937.41;1712505;84;21446;-79
2021/06/17 07:32:26;;;;;;;5.85;4.03;;;;;;;21.39;56.76;97947.35;1712454;84;21103;-79
2021/06/17 07:34:57;;;;;;;7.03;4.10;;;;;;;21.49;55.82;97948.38;1712700;84;21012;-79
2021/06/17 07:37:28;;;;;;;7.90;4.05;;;;;;;21.61;55.90;97951.98;1709040;84;21016;-79
2021/06/17 07:39:57;;;;;;;6.80;3.70;;;;;;;21.76;55.98;97943.26;1712660;84;21386;-80
2021/06/17 07:42:29;;;;;;;9.65;4.10;;;;;;;21.89;55.42;97942.66;1696321;84;21028;-79
2021/06/17 07:44:58;;;;;;;8.18;3.80;;;;;;;22.00;55.54;97949.93;1684466;84;21444;-82
2021/06/17 07:47:30;;;;;;;5.37;3.10;;;;;;;22.17;55.62;97952.30;1693138;84;21012;-82
2021/06/17 07:50:02;;;;;;;4.12;3.25;;;;;;;22.28;55.04;97953.66;1696892;84;21075;-81
2021/06/17 07:52:34;;;;;;;5.90;3.67;;;;;;;22.33;52.80;97953.31;1697570;84;21076;-81
2021/06/17 07:55:12;;;;;;;6.80;3.35;;;;;;;22.33;52.01;97957.36;1696858;84;21026;-81
2021/06/17 07:57:45;;;;;;;5.37;3.87;;;;;;;22.31;50.53;97953.91;1693379;84;21107;-81
2021/06/17 08:00:19;;;;;;;;;;;;;;;22.39;52.98;97959.05;1681601;84;21004;-82
2021/06/17 08:02:51;;;;;;;6.40;3.37;;;;;;;22.47;52.94;97952.20;1673766;84;20125;-82
2021/06/17 08:05:23;;;;;;;4.62;3.62;;;;;;;22.53;52.48;97952.61;1684266;84;21040;-83
2021/06/17 08:07:55;;;;;;;4.55;3.60;;;;;;;22.61;50.28;97949.77;1695924;84;21072;-81
2021/06/17 08:10:24;;;;;;;6.28;3.92;;;;;;;22.72;51.82;97947.56;1696100;84;21029;-82
2021/06/17 08:12:56;;;;;;;6.72;4.12;;;;;;;22.91;51.85;97950.97;1696953;84;21044;-81
2021/06/17 08:15:27;;;;;;;5.37;3.58;;;;;;;23.06;51.23;97951.58;1697316;84;21055;-82
2021/06/17 08:17:55;;;;;;;6.10;3.77;;;;;;;23.24;51.46;97947.00;1697395;84;21060;-81
2021/06/17 08:20:23;;;;;;;5.33;4.08;;;;;;;23.36;49.68;97943.77;1697269;84;21391;-81
2021/06/17 08:22:56;;;;;;;11.75;7.90;;;;;;;23.43;49.46;97940.94;1697238;84;21119;-81
2021/06/17 08:25:27;;;;;;;33.63;26.80;;;;;;;23.48;50.50;97941.41;1697577;84;21013;-81
2021/06/17 08:28:04;;;;;;;5.55;4.97;;;;;;;23.46;49.96;97940.17;1693460;84;21037;-81
2021/06/17 08:30:30;;;;;;;7.10;4.30;;;;;;;23.46;50.23;97933.94;1671667;85;21439;-82
2021/06/17 08:33:01;;;;;;;5.20;3.77;;;;;;;23.49;49.80;97934.17;1672936;85;21017;-81
2021/06/17 08:35:30;;;;;;;7.45;4.45;;;;;;;23.52;49.78;97932.53;1682218;85;21068;-82
2021/06/17 08:38:00;;;;;;;6.45;4.47;;;;;;;23.55;49.94;97934.99;1678792;85;21032;-82
2021/06/17 08:40:35;;;;;;;4.55;3.77;;;;;;;23.57;49.11;97942.47;1678341;85;21041;-80
2021/06/17 08:43:05;;;;;;;6.72;5.22;;;;;;;23.64;49.80;97940.11;1677068;85;21502;-80
2021/06/17 08:45:34;;;;;;;7.95;5.97;;;;;;;23.78;50.18;97949.27;1678805;85;20994;-80
2021/06/17 08:48:10;;;;;;;9.98;4.75;;;;;;;23.89;49.81;97945.66;1674785;85;21057;-80
2021/06/17 08:50:40;;;;;;;9.38;4.47;;;;;;;24.02;49.23;97943.23;1676781;85;21014;-80
2021/06/17 08:53:12;;;;;;;8.43;4.97;;;;;;;24.13;48.89;97943.21;1674882;85;21073;-80
2021/06/17 08:55:42;;;;;;;6.33;4.20;;;;;;;24.22;48.84;97941.54;1674102;85;21061;-80
2021/06/17 08:58:14;;;;;;;7.50;4.58;;;;;;;24.32;48.75;97942.45;1684366;84;21025;-79
2021/06/17 09:00:48;;;;;;;10.65;4.65;;;;;;;24.39;48.83;97940.94;1685336;85;21061;-80
2021/06/17 09:03:18;;;;;;;10.68;4.60;;;;;;;24.50;48.77;97945.38;1685320;85;21096;-80
2021/06/17 09:05:57;;;;;;;8.47;4.70;;;;;;;24.64;48.86;97943.31;1684723;84;21058;-80
2021/06/17 09:08:33;;;;;;;7.95;4.72;;;;;;;24.76;47.16;97942.23;1675480;85;20961;-80
2021/06/17 09:11:02;;;;;;;7.22;4.62;;;;;;;24.84;47.72;97951.06;1676662;85;21009;-79
2021/06/17 09:13:33;;;;;;;6.30;4.55;;;;;;;24.89;47.22;97950.63;1675579;85;21074;-80
2021/06/17 09:16:01;;;;;;;9.70;4.97;;;;;;;24.93;44.94;97952.56;1681780;85;21030;-80
2021/06/17 09:18:30;;;;;;;4.67;3.80;;;;;;;24.96;45.52;97951.81;1682741;85;21009;-81
2021/06/17 09:21:11;;;;;;;6.78;4.90;;;;;;;24.99;45.17;97955.58;1682816;85;21040;-81
2021/06/17 09:23:43;;;;;;;7.25;3.87;;;;;;;25.02;45.43;97953.09;1682739;85;21403;-81
2021/06/17 09:26:23;;;;;;;7.50;4.28;;;;;;;25.11;44.75;97952.78;1682548;85;21032;-81
2021/06/17 09:29:05;;;;;;;5.85;4.22;;;;;;;25.22;43.85;97946.36;1684598;83;21032;-80
2021/06/17 09:31:40;;;;;;;7.75;4.53;;;;;;;25.34;44.50;97949.80;1689074;84;21021;-80
2021/06/17 09:34:10;;;;;;;6.30;3.80;;;;;;;25.43;43.70;97951.67;1685727;85;21022;-80
2021/06/17 09:36:40;;;;;;;5.95;3.90;;;;;;;25.56;43.61;97946.00;1690331;85;21040;-80
2021/06/17 09:39:18;;;;;;;6.83;3.65;;;;;;;25.64;43.16;97942.08;1690158;85;20989;-80
2021/06/17 09:41:50;;;;;;;6.78;3.65;;;;;;;25.78;43.04;97945.37;1675961;85;21001;-80
2021/06/17 09:44:41;;;;;;;5.42;3.95;;;;;;;25.89;40.74;97938.42;1682668;85;20982;-80
2021/06/17 09:47:24;;;;;;;6.35;3.70;;;;;;;26.05;42.55;97935.60;1682348;85;21127;-81
2021/06/17 09:49:54;;;;;;;6.25;3.75;;;;;;;26.16;42.42;97928.63;1684325;85;20957;-80
2021/06/17 09:52:26;;;;;;;9.78;5.50;;;;;;;26.25;41.87;97926.08;1683672;85;21512;-81
2021/06/17 09:54:52;;;;;;;6.53;4.37;;;;;;;26.36;41.98;97927.25;1679952;85;21017;-81
2021/06/17 09:57:19;;;;;;;4.95;3.37;;;;;;;26.46;40.74;97923.16;1682129;85;21377;-81
2021/06/17 09:59:53;;;;;;;7.97;3.77;;;;;;;26.60;39.22;97912.30;1669372;85;21406;-81
2021/06/17 10:02:34;;;;;;;6.83;4.08;;;;;;;26.70;38.62;97910.91;1682165;85;20941;-81
2021/06/17 10:05:21;;;;;;;5.25;4.20;;;;;;;26.78;39.79;97916.94;1686658;85;21071;-80
2021/06/17 10:07:50;;;;;;;7.00;3.80;;;;;;;26.83;39.70;97909.19;1684093;85;21008;-80
2021/06/17 10:10:22;;;;;;;7.05;3.75;;;;;;;26.83;39.70;97909.19;1685736;85;21156;-82
2021/06/17 10:12:49;;;;;;;5.90;3.50;;;;;;;26.86;39.76;97906.18;1681877;85;21071;-81
2021/06/17 10:15:17;;;;;;;3.95;3.08;;;;;;;26.92;38.10;97908.77;1679215;85;21040;-80
2021/06/17 10:17:44;;;;;;;3.87;3.02;;;;;;;26.92;38.10;97908.77;1683877;85;21040;-81
2021/06/17 10:20:12;;;;;;;4.83;3.20;;;;;;;26.83;37.87;97905.98;1687717;85;21005;-81
2021/06/17 10:22:43;;;;;;;3.70;3.20;;;;;;;26.81;37.67;97902.54;1677132;84;21503;-82
2021/06/17 10:25:22;;;;;;;;;;;;;;;26.82;38.30;97915.12;1678454;85;21164;-80
2021/06/17 10:27:51;;;;;;;5.95;3.62;;;;;;;26.81;37.17;97912.05;1682789;84;20186;-78
2021/06/17 10:30:37;;;;;;;6.55;4.45;;;;;;;26.79;37.62;97905.06;1694324;84;21020;-75
2021/06/17 10:33:11;;;;;;;7.20;4.73;;;;;;;26.89;38.69;97909.94;1696875;84;21024;-76
2021/06/17 10:35:45;;;;;;;4.37;3.12;;;;;;;26.95;37.64;97904.44;1693169;84;20981;-83
2021/06/17 10:38:17;;;;;;;5.87;3.75;;;;;;;26.94;38.29;97902.20;1699448;84;21118;-81
2021/06/17 10:40:48;;;;;;;4.28;3.10;;;;;;;26.95;37.52;97897.11;1692074;84;21009;-81
2021/06/17 10:43:21;;;;;;;5.20;3.72;;;;;;;26.95;37.52;97897.11;1696072;84;21044;-82
2021/06/17 10:45:56;;;;;;;4.42;3.37;;;;;;;27.22;38.27;97888.58;1695820;84;21056;-82
2021/06/17 10:48:29;;;;;;;7.65;3.40;;;;;;;28.06;37.68;97888.77;1695760;84;21028;-84
2021/06/17 10:51:11;;;;;;;4.42;3.30;;;;;;;28.88;36.11;97881.18;1688139;84;21125;-83
2021/06/17 10:53:46;;;;;;;5.47;3.58;;;;;;;29.89;34.29;97881.20;1686862;84;21097;-86
2021/06/17 10:56:26;;;;;;;6.10;3.15;;;;;;;30.88;33.36;97880.63;1687374;84;21079;-81
2021/06/17 10:58:57;;;;;;;3.50;3.17;;;;;;;31.84;32.97;97886.31;1687780;84;21017;-82
2021/06/17 11:01:44;;;;;;;5.10;3.25;;;;;;;32.69;30.43;97877.91;1709033;84;21070;-84
2021/06/17 11:04:34;;;;;;;3.52;3.22;;;;;;;33.28;28.48;97867.86;1680780;84;20978;-84
2021/06/17 11:07:07;;;;;;;6.53;3.40;;;;;;;33.22;27.55;97870.02;1693835;84;21134;-84
2021/06/17 11:09:48;;;;;;;3.92;3.33;;;;;;;32.55;29.66;97876.03;1693170;84;21497;-82
2021/06/17 11:12:27;;;;;;;3.52;3.22;;;;;;;31.78;29.74;97881.05;1693636;84;20954;-84
2021/06/17 11:14:58;;;;;;;4.55;3.05;;;;;;;31.31;30.11;97875.58;1696708;84;21384;-83
2021/06/17 11:17:36;;;;;;;4.35;3.37;;;;;;;30.96;30.52;97891.50;1695749;84;20923;-85
2021/06/17 11:20:18;;;;;;;5.67;3.27;;;;;;;30.54;31.20;97899.87;1691713;84;20977;-83
2021/06/17 11:22:58;;;;;;;4.92;3.80;;;;;;;30.00;31.96;97907.30;1695180;84;21048;-82
2021/06/17 11:25:30;;;;;;;5.40;3.55;;;;;;;29.37;33.54;97909.13;1694464;84;21067;-82
2021/06/17 11:28:06;;;;;;;6.45;3.75;;;;;;;28.69;35.78;97919.47;1697324;84;20961;-85
2021/06/17 11:30:41;;;;;;;4.03;3.35;;;;;;;28.13;37.69;97924.40;1697118;84;21525;-83
2021/06/17 11:33:31;;;;;;;6.70;4.03;;;;;;;27.51;38.61;97929.67;1696747;84;21585;-83
2021/06/17 11:36:10;;;;;;;5.75;3.77;;;;;;;26.98;39.40;97932.17;1692774;84;21409;-84
2021/06/17 11:38:37;;;;;;;5.55;3.92;;;;;;;26.52;42.15;97938.02;1695788;84;21533;-83
2021/06/17 11:41:19;;;;;;;7.05;3.45;;;;;;;26.13;42.55;97929.44;1697055;84;21430;-82
2021/06/17 11:43:56;;;;;;;16.20;5.50;;;;;;;25.91;42.25;97934.20;1696962;84;21088;-83
2021/06/17 11:46:38;;;;;;;5.45;4.20;;;;;;;25.73;42.52;97939.52;1686768;84;21067;-83
2021/06/17 11:49:07;;;;;;;6.12;3.90;;;;;;;25.61;43.49;97932.02;1703211;84;20993;-84
2021/06/17 11:51:43;;;;;;;5.33;3.70;;;;;;;25.55;43.30;97930.72;1693072;84;20976;-82
2021/06/17 11:54:21;;;;;;;7.28;3.52;;;;;;;25.63;43.55;97936.30;1649991;86;21032;-82
2021/06/17 11:56:55;;;;;;;8.13;3.92;;;;;;;25.99;42.68;97934.31;1677804;84;21051;-82
2021/06/17 11:59:31;;;;;;;5.65;3.60;;;;;;;26.81;41.80;97933.80;1698700;84;21075;-83
2021/06/17 12:02:07;;;;;;;5.85;3.67;;;;;;;27.75;41.10;97925.98;1693281;84;21471;-83